sensor_id;sensor_type;location;lat;lon;timestamp;pressure;altitude;pressure_sealevel;temperature;humidity
46129;BME280;31860;45.186;5.790;2023-10-19T00:02:06;97727.16;;;19.58;100.00
46129;BME280;31860;45.186;5.790;2023-10-19T00:04:32;97732.38;;;19.59;100.00
46129;BME280;31860;45.186;5.790;2023-10-19T00:07:00;97732.19;;;19.62;100.00
46129;BME280;31860;45.186;5.790;2023-10-19T00:09:26;97736.53;;;19.63;100.00
46129;BME280;31860;45.186;5.790;2023-10-19T00:11:56;97734.66;;;19.65;100.00
46129;BME280;31860;45.186;5.790;2023-10-19T00:14:23;97727.28;;;19.70;100.00
46129;BME280;31860;45.186;5.790;2023-10-19T00:16:51;97727.97;;;19.74;100.00
46129;BME280;31860;45.186;5.790;2023-10-19T00:19:18;97726.06;;;19.76;100.00
46129;BME280;31860;45.186;5.790;2023-10-19T00:21:46;97726.66;;;19.81;100.00
46129;BME280;31860;45.186;5.790;2023-10-19T00:24:21;97729.19;;;19.82;100.00
46129;BME280;31860;45.186;5.790;2023-10-19T00:26:48;97731.75;;;19.84;100.00
46129;BME280;31860;45.186;5.790;2023-10-19T00:29:17;97734.41;;;19.84;100.00
46129;BME280;31860;45.186;5.790;2023-10-19T00:31:56;97715.09;;;19.82;100.00
46129;BME280;31860;45.186;5.790;2023-10-19T00:34:23;97709.88;;;19.80;100.00
46129;BME280;31860;45.186;5.790;2023-10-19T00:36:50;97699.38;;;19.79;100.00
46129;BME280;31860;45.186;5.790;2023-10-19T00:39:16;97710.09;;;19.77;100.00
46129;BME280;31860;45.186;5.790;2023-10-19T00:41:46;97696.16;;;19.74;100.00
46129;BME280;31860;45.186;5.790;2023-10-19T00:44:12;97699.84;;;19.71;100.00
46129;BME280;31860;45.186;5.790;2023-10-19T00:46:41;97692.00;;;19.70;100.00
46129;BME280;31860;45.186;5.790;2023-10-19T00:49:07;97679.78;;;19.67;100.00
46129;BME280;31860;45.186;5.790;2023-10-19T00:51:52;97678.09;;;19.66;100.00
46129;BME280;31860;45.186;5.790;2023-10-19T00:56:57;97674.84;;;19.61;100.00
46129;BME280;31860;45.186;5.790;2023-10-19T00:59:28;97673.06;;;19.62;100.00
46129;BME280;31860;45.186;5.790;2023-10-19T01:02:00;97660.75;;;19.61;100.00
46129;BME280;31860;45.186;5.790;2023-10-19T01:04:52;97658.28;;;19.58;100.00
46129;BME280;31860;45.186;5.790;2023-10-19T01:07:24;97668.03;;;19.57;100.00
46129;BME280;31860;45.186;5.790;2023-10-19T01:09:55;97660.06;;;19.57;100.00
46129;BME280;31860;45.186;5.790;2023-10-19T01:12:25;97660.94;;;19.58;100.00
46129;BME280;31860;45.186;5.790;2023-10-19T01:17:32;97640.78;;;19.55;100.00
46129;BME280;31860;45.186;5.790;2023-10-19T01:19:59;97646.28;;;19.52;100.00
46129;BME280;31860;45.186;5.790;2023-10-19T01:22:25;97630.47;;;19.51;100.00
46129;BME280;31860;45.186;5.790;2023-10-19T01:24:52;97625.34;;;19.48;100.00
46129;BME280;31860;45.186;5.790;2023-10-19T01:27:18;97611.34;;;19.46;100.00
46129;BME280;31860;45.186;5.790;2023-10-19T01:29:44;97613.06;;;19.47;100.00
46129;BME280;31860;45.186;5.790;2023-10-19T01:32:10;97608.63;;;19.47;100.00
46129;BME280;31860;45.186;5.790;2023-10-19T01:34:37;97606.75;;;19.49;100.00
46129;BME280;31860;45.186;5.790;2023-10-19T01:37:02;97610.22;;;19.50;100.00
46129;BME280;31860;45.186;5.790;2023-10-19T01:39:31;97621.47;;;19.53;100.00
46129;BME280;31860;45.186;5.790;2023-10-19T01:41:58;97616.09;;;19.55;100.00
46129;BME280;31860;45.186;5.790;2023-10-19T01:44:23;97605.41;;;19.56;100.00
46129;BME280;31860;45.186;5.790;2023-10-19T01:46:50;97607.97;;;19.58;100.00
46129;BME280;31860;45.186;5.790;2023-10-19T01:49:15;97605.09;;;19.61;100.00
46129;BME280;31860;45.186;5.790;2023-10-19T01:51:51;97603.22;;;19.63;100.00
46129;BME280;31860;45.186;5.790;2023-10-19T01:54:17;97600.41;;;19.66;100.00
46129;BME280;31860;45.186;5.790;2023-10-19T01:56:48;97594.91;;;19.69;100.00
46129;BME280;31860;45.186;5.790;2023-10-19T01:59:15;97602.84;;;19.69;100.00
46129;BME280;31860;45.186;5.790;2023-10-19T02:01:41;97603.81;;;19.68;100.00
46129;BME280;31860;45.186;5.790;2023-10-19T02:04:10;97599.25;;;19.70;100.00
46129;BME280;31860;45.186;5.790;2023-10-19T02:06:38;97602.56;;;19.73;100.00
46129;BME280;31860;45.186;5.790;2023-10-19T02:09:10;97602.47;;;19.75;100.00
46129;BME280;31860;45.186;5.790;2023-10-19T02:11:52;97593.66;;;19.74;100.00
46129;BME280;31860;45.186;5.790;2023-10-19T02:14:18;97593.50;;;19.77;100.00
46129;BME280;31860;45.186;5.790;2023-10-19T02:16:49;97583.72;;;19.78;100.00
46129;BME280;31860;45.186;5.790;2023-10-19T02:19:19;97575.00;;;19.76;100.00
46129;BME280;31860;45.186;5.790;2023-10-19T02:21:48;97566.22;;;19.75;100.00
46129;BME280;31860;45.186;5.790;2023-10-19T02:24:14;97560.19;;;19.73;100.00
46129;BME280;31860;45.186;5.790;2023-10-19T02:26:43;97570.03;;;19.71;100.00
46129;BME280;31860;45.186;5.790;2023-10-19T02:29:09;97572.78;;;19.70;100.00
46129;BME280;31860;45.186;5.790;2023-10-19T02:31:39;97562.19;;;19.70;100.00
46129;BME280;31860;45.186;5.790;2023-10-19T02:34:09;97563.84;;;19.71;100.00
46129;BME280;31860;45.186;5.790;2023-10-19T02:36:41;97558.66;;;19.69;100.00
46129;BME280;31860;45.186;5.790;2023-10-19T02:39:12;97537.56;;;19.68;100.00
46129;BME280;31860;45.186;5.790;2023-10-19T02:41:44;97533.19;;;19.67;100.00
46129;BME280;31860;45.186;5.790;2023-10-19T02:44:13;97535.94;;;19.65;100.00
46129;BME280;31860;45.186;5.790;2023-10-19T02:46:42;97531.69;;;19.63;100.00
46129;BME280;31860;45.186;5.790;2023-10-19T02:49:09;97527.34;;;19.62;100.00
46129;BME280;31860;45.186;5.790;2023-10-19T02:51:39;97521.31;;;19.60;100.00
46129;BME280;31860;45.186;5.790;2023-10-19T02:54:06;97506.44;;;19.57;100.00
46129;BME280;31860;45.186;5.790;2023-10-19T02:56:32;97493.19;;;19.57;100.00
46129;BME280;31860;45.186;5.790;2023-10-19T02:59:01;97494.91;;;19.58;100.00
46129;BME280;31860;45.186;5.790;2023-10-19T03:01:30;97487.81;;;19.59;100.00
46129;BME280;31860;45.186;5.790;2023-10-19T03:04:01;97487.81;;;19.59;100.00
46129;BME280;31860;45.186;5.790;2023-10-19T03:06:28;97476.38;;;19.58;100.00
46129;BME280;31860;45.186;5.790;2023-10-19T03:08:58;97479.13;;;19.57;100.00
46129;BME280;31860;45.186;5.790;2023-10-19T03:11:27;97479.28;;;19.54;100.00
46129;BME280;31860;45.186;5.790;2023-10-19T03:13:53;97481.09;;;19.53;100.00
46129;BME280;31860;45.186;5.790;2023-10-19T03:16:19;97481.09;;;19.53;100.00
46129;BME280;31860;45.186;5.790;2023-10-19T03:18:46;97481.94;;;19.54;100.00
46129;BME280;31860;45.186;5.790;2023-10-19T03:21:11;97482.91;;;19.53;100.00
46129;BME280;31860;45.186;5.790;2023-10-19T03:23:37;97485.66;;;19.51;100.00
46129;BME280;31860;45.186;5.790;2023-10-19T03:26:04;97481.28;;;19.50;100.00
46129;BME280;31860;45.186;5.790;2023-10-19T03:28:53;97487.56;;;19.49;100.00
46129;BME280;31860;45.186;5.790;2023-10-19T03:31:23;97476.00;;;19.50;100.00
46129;BME280;31860;45.186;5.790;2023-10-19T03:33:50;97471.66;;;19.49;100.00
46129;BME280;31860;45.186;5.790;2023-10-19T03:36:20;97478.75;;;19.49;100.00
46129;BME280;31860;45.186;5.790;2023-10-19T03:38:46;97481.28;;;19.50;100.00
46129;BME280;31860;45.186;5.790;2023-10-19T03:41:11;97473.34;;;19.50;100.00
46129;BME280;31860;45.186;5.790;2023-10-19T03:43:37;97472.50;;;19.50;100.00
46129;BME280;31860;45.186;5.790;2023-10-19T03:46:06;97475.13;;;19.50;100.00
46129;BME280;31860;45.186;5.790;2023-10-19T03:48:55;97468.34;;;19.46;100.00
46129;BME280;31860;45.186;5.790;2023-10-19T03:51:27;97468.34;;;19.46;100.00
46129;BME280;31860;45.186;5.790;2023-10-19T03:54:04;97468.25;;;19.47;100.00
46129;BME280;31860;45.186;5.790;2023-10-19T03:56:34;97466.66;;;19.45;100.00
46129;BME280;31860;45.186;5.790;2023-10-19T03:59:00;97462.31;;;19.44;100.00
46129;BME280;31860;45.186;5.790;2023-10-19T04:01:25;97460.38;;;19.46;100.00
46129;BME280;31860;45.186;5.790;2023-10-19T04:03:51;97458.69;;;19.45;100.00
46129;BME280;31860;45.186;5.790;2023-10-19T04:06:20;97459.66;;;19.44;100.00
46129;BME280;31860;45.186;5.790;2023-10-19T04:08:46;97441.13;;;19.44;100.00
46129;BME280;31860;45.186;5.790;2023-10-19T04:11:16;97436.66;;;19.44;100.00
46129;BME280;31860;45.186;5.790;2023-10-19T04:13:49;97435.06;;;19.42;100.00
46129;BME280;31860;45.186;5.790;2023-10-19T04:16:19;97425.41;;;19.41;100.00
46129;BME280;31860;45.186;5.790;2023-10-19T04:18:44;97419.25;;;19.40;100.00
46129;BME280;31860;45.186;5.790;2023-10-19T04:21:10;97424.56;;;19.40;100.00
46129;BME280;31860;45.186;5.790;2023-10-19T04:23:35;97426.38;;;19.40;100.00
46129;BME280;31860;45.186;5.790;2023-10-19T04:26:02;97411.41;;;19.39;100.00
46129;BME280;31860;45.186;5.790;2023-10-19T04:28:36;97414.06;;;19.39;100.00
46129;BME280;31860;45.186;5.790;2023-10-19T04:31:14;97405.25;;;19.38;100.00
46129;BME280;31860;45.186;5.790;2023-10-19T04:33:40;97392.13;;;19.37;100.00
46129;BME280;31860;45.186;5.790;2023-10-19T04:36:08;97384.38;;;19.34;100.00
46129;BME280;31860;45.186;5.790;2023-10-19T04:38:36;97396.00;;;19.31;100.00
46129;BME280;31860;45.186;5.790;2023-10-19T04:41:06;97391.59;;;19.32;100.00
46129;BME280;31860;45.186;5.790;2023-10-19T04:43:33;97394.22;;;19.32;100.00
46129;BME280;31860;45.186;5.790;2023-10-19T04:45:59;97385.31;;;19.33;100.00
46129;BME280;31860;45.186;5.790;2023-10-19T04:48:25;97382.69;;;19.33;100.00
46129;BME280;31860;45.186;5.790;2023-10-19T04:50:50;97372.00;;;19.34;100.00
46129;BME280;31860;45.186;5.790;2023-10-19T04:53:16;97375.41;;;19.36;100.00
46129;BME280;31860;45.186;5.790;2023-10-19T04:55:41;97364.72;;;19.38;100.00
46129;BME280;31860;45.186;5.790;2023-10-19T04:58:07;97361.22;;;19.37;100.00
46129;BME280;31860;45.186;5.790;2023-10-19T05:00:32;97345.22;;;19.39;100.00
46129;BME280;31860;45.186;5.790;2023-10-19T05:02:58;97356.03;;;19.36;100.00
46129;BME280;31860;45.186;5.790;2023-10-19T05:05:23;97355.91;;;19.37;100.00
46129;BME280;31860;45.186;5.790;2023-10-19T05:07:49;97368.13;;;19.40;100.00
46129;BME280;31860;45.186;5.790;2023-10-19T05:10:14;97371.53;;;19.42;100.00
46129;BME280;31860;45.186;5.790;2023-10-19T05:12:40;97359.09;;;19.42;100.00
46129;BME280;31860;45.186;5.790;2023-10-19T05:15:05;97361.69;;;19.44;100.00
46129;BME280;31860;45.186;5.790;2023-10-19T05:17:31;97363.38;;;19.45;100.00
46129;BME280;31860;45.186;5.790;2023-10-19T05:19:56;97352.97;;;19.42;100.00
46129;BME280;31860;45.186;5.790;2023-10-19T05:22:22;97353.06;;;19.40;100.00
46129;BME280;31860;45.186;5.790;2023-10-19T05:24:50;97356.56;;;19.41;100.00
46129;BME280;31860;45.186;5.790;2023-10-19T05:27:16;97361.00;;;19.40;100.00
46129;BME280;31860;45.186;5.790;2023-10-19T05:29:43;97362.59;;;19.43;100.00
46129;BME280;31860;45.186;5.790;2023-10-19T05:32:08;97345.69;;;19.45;100.00
46129;BME280;31860;45.186;5.790;2023-10-19T05:34:34;97342.81;;;19.48;100.00
46129;BME280;31860;45.186;5.790;2023-10-19T05:37:01;97326.06;;;19.48;100.00
46129;BME280;31860;45.186;5.790;2023-10-19T05:39:28;97330.53;;;19.47;100.00
46129;BME280;31860;45.186;5.790;2023-10-19T05:41:54;97333.19;;;19.47;100.00
46129;BME280;31860;45.186;5.790;2023-10-19T05:44:20;97324.50;;;19.45;100.00
46129;BME280;31860;45.186;5.790;2023-10-19T05:46:45;97312.94;;;19.46;100.00
46129;BME280;31860;45.186;5.790;2023-10-19T05:49:12;97314.72;;;19.46;100.00
46129;BME280;31860;45.186;5.790;2023-10-19T05:51:37;97320.13;;;19.44;100.00
46129;BME280;31860;45.186;5.790;2023-10-19T05:54:03;97306.91;;;19.44;100.00
46129;BME280;31860;45.186;5.790;2023-10-19T05:56:30;97303.41;;;19.44;100.00
46129;BME280;31860;45.186;5.790;2023-10-19T05:58:56;97293.00;;;19.41;100.00
46129;BME280;31860;45.186;5.790;2023-10-19T06:01:23;97300.19;;;19.39;100.00
46129;BME280;31860;45.186;5.790;2023-10-19T06:03:48;97297.03;;;19.34;100.00
46129;BME280;31860;45.186;5.790;2023-10-19T06:06:14;97294.50;;;19.31;100.00
46129;BME280;31860;45.186;5.790;2023-10-19T06:08:42;97291.16;;;19.29;100.00
46129;BME280;31860;45.186;5.790;2023-10-19T06:11:08;97299.38;;;19.24;100.00
46129;BME280;31860;45.186;5.790;2023-10-19T06:13:33;97311.13;;;19.20;100.00
46129;BME280;31860;45.186;5.790;2023-10-19T06:15:59;97293.44;;;19.21;100.00
46129;BME280;31860;45.186;5.790;2023-10-19T06:18:24;97282.00;;;19.20;100.00
46129;BME280;31860;45.186;5.790;2023-10-19T06:20:50;97293.63;;;19.18;100.00
46129;BME280;31860;45.186;5.790;2023-10-19T06:23:17;97292.78;;;19.17;100.00
46129;BME280;31860;45.186;5.790;2023-10-19T06:25:43;97300.63;;;19.19;100.00
46129;BME280;31860;45.186;5.790;2023-10-19T06:28:09;97289.06;;;19.20;100.00
46129;BME280;31860;45.186;5.790;2023-10-19T06:30:36;97296.09;;;19.21;100.00
46129;BME280;31860;45.186;5.790;2023-10-19T06:33:02;97297.88;;;19.20;100.00
46129;BME280;31860;45.186;5.790;2023-10-19T06:35:29;97290.78;;;19.21;100.00
46129;BME280;31860;45.186;5.790;2023-10-19T06:37:57;97294.38;;;19.20;100.00
46129;BME280;31860;45.186;5.790;2023-10-19T06:40:24;97293.56;;;19.19;100.00
46129;BME280;31860;45.186;5.790;2023-10-19T06:42:54;97290.78;;;19.21;100.00
46129;BME280;31860;45.186;5.790;2023-10-19T06:45:21;97299.50;;;19.23;100.00
46129;BME280;31860;45.186;5.790;2023-10-19T06:47:48;97287.94;;;19.24;100.00
46129;BME280;31860;45.186;5.790;2023-10-19T06:50:19;97273.75;;;19.25;100.00
46129;BME280;31860;45.186;5.790;2023-10-19T06:52:45;97263.25;;;19.23;100.00
46129;BME280;31860;45.186;5.790;2023-10-19T06:55:15;97261.69;;;19.21;100.00
46129;BME280;31860;45.186;5.790;2023-10-19T06:57:50;97266.13;;;19.20;100.00
46129;BME280;31860;45.186;5.790;2023-10-19T07:00:18;97271.50;;;19.19;100.00
46129;BME280;31860;45.186;5.790;2023-10-19T07:02:55;97265.56;;;19.15;100.00
46129;BME280;31860;45.186;5.790;2023-10-19T07:05:22;97268.13;;;19.17;100.00
46129;BME280;31860;45.186;5.790;2023-10-19T07:07:48;97264.59;;;19.16;100.00
46129;BME280;31860;45.186;5.790;2023-10-19T07:10:15;97265.47;;;19.17;100.00
46129;BME280;31860;45.186;5.790;2023-10-19T07:12:44;97265.25;;;19.20;100.00
46129;BME280;31860;45.186;5.790;2023-10-19T07:15:10;97254.66;;;19.20;100.00
46129;BME280;31860;45.186;5.790;2023-10-19T07:17:46;97253.72;;;19.21;100.00
46129;BME280;31860;45.186;5.790;2023-10-19T07:20:13;97255.41;;;19.22;100.00
46129;BME280;31860;45.186;5.790;2023-10-19T07:23:01;97261.47;;;19.24;100.00
46129;BME280;31860;45.186;5.790;2023-10-19T07:25:43;97269.41;;;19.24;100.00
46129;BME280;31860;45.186;5.790;2023-10-19T07:28:09;97267.50;;;19.26;100.00
46129;BME280;31860;45.186;5.790;2023-10-19T07:30:37;97271.88;;;19.27;100.00
46129;BME280;31860;45.186;5.790;2023-10-19T07:33:02;97270.91;;;19.28;100.00
46129;BME280;31860;45.186;5.790;2023-10-19T07:35:34;97273.56;;;19.28;100.00
46129;BME280;31860;45.186;5.790;2023-10-19T07:37:59;97283.09;;;19.30;100.00
46129;BME280;31860;45.186;5.790;2023-10-19T07:40:26;97284.63;;;19.34;100.00
46129;BME280;31860;45.186;5.790;2023-10-19T07:42:52;97287.94;;;19.38;100.00
46129;BME280;31860;45.186;5.790;2023-10-19T07:45:19;97270.22;;;19.38;100.00
46129;BME280;31860;45.186;5.790;2023-10-19T07:47:44;97262.94;;;19.42;100.00
46129;BME280;31860;45.186;5.790;2023-10-19T07:50:13;97263.78;;;19.42;100.00
46129;BME280;31860;45.186;5.790;2023-10-19T07:52:43;97255.94;;;19.41;100.00
46129;BME280;31860;45.186;5.790;2023-10-19T07:55:09;97254.03;;;19.43;100.00
46129;BME280;31860;45.186;5.790;2023-10-19T07:57:35;97249.28;;;19.48;100.00
46129;BME280;31860;45.186;5.790;2023-10-19T08:00:02;97237.75;;;19.49;100.00
46129;BME280;31860;45.186;5.790;2023-10-19T08:02:29;97249.19;;;19.49;100.00
46129;BME280;31860;45.186;5.790;2023-10-19T08:04:55;97235.84;;;19.51;100.00
46129;BME280;31860;45.186;5.790;2023-10-19T08:07:21;97231.41;;;19.51;100.00
46129;BME280;31860;45.186;5.790;2023-10-19T08:09:46;97218.69;;;19.56;100.00
46129;BME280;31860;45.186;5.790;2023-10-19T08:12:12;97223.59;;;19.62;100.00
46129;BME280;31860;45.186;5.790;2023-10-19T08:14:39;97221.91;;;19.74;100.00
46129;BME280;31860;45.186;5.790;2023-10-19T08:17:05;97212.16;;;19.87;100.00
46129;BME280;31860;45.186;5.790;2023-10-19T08:19:31;97205.97;;;19.99;100.00
46129;BME280;31860;45.186;5.790;2023-10-19T08:21:57;97194.19;;;20.16;100.00
46129;BME280;31860;45.186;5.790;2023-10-19T08:24:23;97184.78;;;20.24;100.00
46129;BME280;31860;45.186;5.790;2023-10-19T08:26:48;97185.72;;;20.36;100.00
46129;BME280;31860;45.186;5.790;2023-10-19T08:29:16;97177.72;;;20.48;100.00
46129;BME280;31860;45.186;5.790;2023-10-19T08:31:42;97171.88;;;20.56;100.00
46129;BME280;31860;45.186;5.790;2023-10-19T08:34:10;97171.13;;;20.54;100.00
46129;BME280;31860;45.186;5.790;2023-10-19T08:36:37;97138.78;;;20.49;100.00
46129;BME280;31860;45.186;5.790;2023-10-19T08:39:08;97138.19;;;20.45;100.00
46129;BME280;31860;45.186;5.790;2023-10-19T08:41:37;97128.75;;;20.41;100.00
46129;BME280;31860;45.186;5.790;2023-10-19T08:44:04;97150.16;;;20.38;100.00
46129;BME280;31860;45.186;5.790;2023-10-19T08:46:44;97136.16;;;20.36;100.00
46129;BME280;31860;45.186;5.790;2023-10-19T08:49:14;97139.78;;;20.35;100.00
46129;BME280;31860;45.186;5.790;2023-10-19T08:51:43;97145.09;;;20.35;100.00
46129;BME280;31860;45.186;5.790;2023-10-19T08:54:13;97138.94;;;20.35;100.00
46129;BME280;31860;45.186;5.790;2023-10-19T08:56:40;97148.72;;;20.34;100.00
46129;BME280;31860;45.186;5.790;2023-10-19T08:59:07;97161.13;;;20.34;100.00
46129;BME280;31860;45.186;5.790;2023-10-19T09:01:32;97182.44;;;20.32;100.00
46129;BME280;31860;45.186;5.790;2023-10-19T09:04:00;97198.56;;;20.29;100.00
46129;BME280;31860;45.186;5.790;2023-10-19T09:06:27;97186.28;;;20.28;100.00
46129;BME280;31860;45.186;5.790;2023-10-19T09:08:54;97174.81;;;20.28;100.00
46129;BME280;31860;45.186;5.790;2023-10-19T09:11:20;97182.88;;;20.26;100.00
46129;BME280;31860;45.186;5.790;2023-10-19T09:13:51;97173.34;;;20.24;100.00
46129;BME280;31860;45.186;5.790;2023-10-19T09:16:21;97167.28;;;20.22;100.00
46129;BME280;31860;45.186;5.790;2023-10-19T09:18:47;97181.63;;;20.19;100.00
46129;BME280;31860;45.186;5.790;2023-10-19T09:21:17;97164.22;;;20.15;100.00
46129;BME280;31860;45.186;5.790;2023-10-19T09:23:55;97161.00;;;20.10;100.00
46129;BME280;31860;45.186;5.790;2023-10-19T09:26:21;97149.59;;;20.10;100.00
46129;BME280;31860;45.186;5.790;2023-10-19T09:28:48;97150.41;;;20.10;100.00
46129;BME280;31860;45.186;5.790;2023-10-19T09:31:14;97148.63;;;20.11;100.00
46129;BME280;31860;45.186;5.790;2023-10-19T09:33:42;97158.28;;;20.12;100.00
46129;BME280;31860;45.186;5.790;2023-10-19T09:36:10;97160.81;;;20.13;100.00
46129;BME280;31860;45.186;5.790;2023-10-19T09:41:15;97159.66;;;20.17;100.00
46129;BME280;31860;45.186;5.790;2023-10-19T09:43:49;97153.41;;;20.18;100.00
46129;BME280;31860;45.186;5.790;2023-10-19T09:46:27;97153.28;;;20.20;100.00
46129;BME280;31860;45.186;5.790;2023-10-19T09:48:54;97156.69;;;20.22;100.00
46129;BME280;31860;45.186;5.790;2023-10-19T09:51:21;97154.78;;;20.24;100.00
46129;BME280;31860;45.186;5.790;2023-10-19T09:54:11;97144.03;;;20.25;100.00
46129;BME280;31860;45.186;5.790;2023-10-19T09:56:42;97167.09;;;20.25;100.00
46129;BME280;31860;45.186;5.790;2023-10-19T09:59:29;97147.66;;;20.24;100.00
46129;BME280;31860;45.186;5.790;2023-10-19T10:02:10;97168.03;;;20.24;100.00
46129;BME280;31860;45.186;5.790;2023-10-19T10:04:39;97161.78;;;20.25;100.00
46129;BME280;31860;45.186;5.790;2023-10-19T10:07:12;97154.66;;;20.25;100.00
46129;BME280;31860;45.186;5.790;2023-10-19T10:09:40;97144.91;;;20.26;100.00
46129;BME280;31860;45.186;5.790;2023-10-19T10:12:22;97150.09;;;20.27;100.00
46129;BME280;31860;45.186;5.790;2023-10-19T10:14:59;97123.56;;;20.27;100.00
46129;BME280;31860;45.186;5.790;2023-10-19T10:17:26;97120.91;;;20.27;100.00
46129;BME280;31860;45.186;5.790;2023-10-19T10:23:16;97119.75;;;20.31;100.00
46129;BME280;31860;45.186;5.790;2023-10-19T10:25:45;97123.13;;;20.33;100.00
46129;BME280;31860;45.186;5.790;2023-10-19T10:28:14;97128.31;;;20.35;100.00
46129;BME280;31860;45.186;5.790;2023-10-19T10:31:13;97115.69;;;20.38;100.00
46129;BME280;31860;45.186;5.790;2023-10-19T10:36:07;97113.44;;;20.45;100.00
46129;BME280;31860;45.186;5.790;2023-10-19T10:38:34;97113.34;;;20.46;100.00
46129;BME280;31860;45.186;5.790;2023-10-19T10:41:03;97102.53;;;20.49;100.00
46129;BME280;31860;45.186;5.790;2023-10-19T10:43:29;97108.44;;;20.53;100.00
46129;BME280;31860;45.186;5.790;2023-10-19T10:46:05;97094.09;;;20.55;100.00
46129;BME280;31860;45.186;5.790;2023-10-19T10:48:32;97091.44;;;20.55;100.00
46129;BME280;31860;45.186;5.790;2023-10-19T10:50:58;97088.56;;;20.58;100.00
46129;BME280;31860;45.186;5.790;2023-10-19T10:53:23;97086.66;;;20.60;100.00
46129;BME280;31860;45.186;5.790;2023-10-19T10:55:53;97083.75;;;20.63;100.00
46129;BME280;31860;45.186;5.790;2023-10-19T10:58:19;97063.88;;;20.69;100.00
46129;BME280;31860;45.186;5.790;2023-10-19T11:00:45;97081.50;;;20.70;100.00
46129;BME280;31860;45.186;5.790;2023-10-19T11:03:16;97068.00;;;20.73;100.00
46129;BME280;31860;45.186;5.790;2023-10-19T11:05:42;97073.19;;;20.74;100.00
46129;BME280;31860;45.186;5.790;2023-10-19T11:08:14;97072.13;;;20.77;100.00
46129;BME280;31860;45.186;5.790;2023-10-19T11:10:46;97065.03;;;20.77;100.00
46129;BME280;31860;45.186;5.790;2023-10-19T11:13:16;97072.84;;;20.79;100.00
46129;BME280;31860;45.186;5.790;2023-10-19T11:15:49;97065.75;;;20.80;100.00
46129;BME280;31860;45.186;5.790;2023-10-19T11:18:34;97061.19;;;20.82;100.00
46129;BME280;31860;45.186;5.790;2023-10-19T11:21:14;97053.25;;;20.93;100.00
46129;BME280;31860;45.186;5.790;2023-10-19T11:23:48;97044.03;;;21.09;100.00
46129;BME280;31860;45.186;5.790;2023-10-19T11:26:16;97049.03;;;21.36;100.00
46129;BME280;31860;45.186;5.790;2023-10-19T11:28:41;97026.56;;;21.62;100.00
46129;BME280;31860;45.186;5.790;2023-10-19T11:31:18;97017.66;;;21.85;100.00
46129;BME280;31860;45.186;5.790;2023-10-19T11:33:45;97015.31;;;22.03;100.00
46129;BME280;31860;45.186;5.790;2023-10-19T11:36:12;97002.22;;;22.22;100.00
46129;BME280;31860;45.186;5.790;2023-10-19T11:38:41;96993.09;;;22.35;100.00
46129;BME280;31860;45.186;5.790;2023-10-19T11:41:07;96984.34;;;22.44;100.00
46129;BME280;31860;45.186;5.790;2023-10-19T11:43:34;96976.81;;;22.49;100.00
46129;BME280;31860;45.186;5.790;2023-10-19T11:46:00;96966.06;;;22.51;100.00
46129;BME280;31860;45.186;5.790;2023-10-19T11:48:25;96963.41;;;22.51;100.00
46129;BME280;31860;45.186;5.790;2023-10-19T11:50:51;96942.34;;;22.48;100.00
46129;BME280;31860;45.186;5.790;2023-10-19T11:53:16;96942.22;;;22.49;100.00
46129;BME280;31860;45.186;5.790;2023-10-19T11:55:42;96931.47;;;22.51;100.00
46129;BME280;31860;45.186;5.790;2023-10-19T11:58:08;96928.41;;;22.55;100.00
46129;BME280;31860;45.186;5.790;2023-10-19T12:00:39;96928.91;;;22.61;100.00
46129;BME280;31860;45.186;5.790;2023-10-19T12:03:04;96925.84;;;22.65;97.26
46129;BME280;31860;45.186;5.790;2023-10-19T12:05:31;96923.66;;;22.70;92.47
46129;BME280;31860;45.186;5.790;2023-10-19T12:07:57;96918.19;;;22.72;90.82
46129;BME280;31860;45.186;5.790;2023-10-19T12:10:22;96905.47;;;22.75;86.29
46129;BME280;31860;45.186;5.790;2023-10-19T12:12:55;96916.84;;;22.77;84.31
46129;BME280;31860;45.186;5.790;2023-10-19T12:15:22;96905.34;;;22.77;84.35
46129;BME280;31860;45.186;5.790;2023-10-19T12:17:48;96901.00;;;22.76;83.72
46129;BME280;31860;45.186;5.790;2023-10-19T12:20:15;96894.69;;;22.77;82.29
46129;BME280;31860;45.186;5.790;2023-10-19T12:22:41;96901.00;;;22.76;80.99
46129;BME280;31860;45.186;5.790;2023-10-19T12:25:07;96899.06;;;22.78;79.58
46129;BME280;31860;45.186;5.790;2023-10-19T12:27:33;96902.66;;;22.77;78.72
46129;BME280;31860;45.186;5.790;2023-10-19T12:29:58;96894.53;;;22.78;77.74
46129;BME280;31860;45.186;5.790;2023-10-19T12:32:27;96883.91;;;22.78;75.85
46129;BME280;31860;45.186;5.790;2023-10-19T12:34:52;96860.06;;;22.77;76.71
46129;BME280;31860;45.186;5.790;2023-10-19T12:37:23;96865.53;;;22.75;76.79
46129;BME280;31860;45.186;5.790;2023-10-19T12:39:49;96855.84;;;22.74;77.03
46129;BME280;31860;45.186;5.790;2023-10-19T12:42:17;96847.03;;;22.74;75.07
46129;BME280;31860;45.186;5.790;2023-10-19T12:44:43;96838.06;;;22.75;74.42
46129;BME280;31860;45.186;5.790;2023-10-19T12:47:09;96827.41;;;22.75;74.07
46129;BME280;31860;45.186;5.790;2023-10-19T12:49:41;96814.81;;;22.77;73.78
46129;BME280;31860;45.186;5.790;2023-10-19T12:52:08;96817.47;;;22.77;73.38
46129;BME280;31860;45.186;5.790;2023-10-19T12:54:34;96803.31;;;22.76;73.48
46129;BME280;31860;45.186;5.790;2023-10-19T12:57:01;96795.34;;;22.76;73.90
46129;BME280;31860;45.186;5.790;2023-10-19T12:59:29;96797.88;;;22.78;73.11
46129;BME280;31860;45.186;5.790;2023-10-19T13:01:54;96789.75;;;22.79;72.39
46129;BME280;31860;45.186;5.790;2023-10-19T13:04:23;96787.25;;;22.78;73.49
46129;BME280;31860;45.186;5.790;2023-10-19T13:06:50;96793.38;;;22.78;74.31
46129;BME280;31860;45.186;5.790;2023-10-19T13:09:16;96803.78;;;22.81;72.22
46129;BME280;31860;45.186;5.790;2023-10-19T13:11:49;96793.13;;;22.81;72.33